createdAt,value
2019-05-12T00:01:38.983Z,2.77
2019-05-12T00:04:12.017Z,3.87
2019-05-12T00:06:40.734Z,3.15
2019-05-12T00:09:12.388Z,3.85
2019-05-12T00:11:41.244Z,3.08
2019-05-12T00:14:10.070Z,2.98
2019-05-12T00:16:38.883Z,3.10
2019-05-12T00:19:09.235Z,4.60
2019-05-12T00:21:39.854Z,5.87
2019-05-12T00:24:12.046Z,1.92
2019-05-12T00:26:47.790Z,3.30
2019-05-12T00:29:18.517Z,6.90
2019-05-12T00:31:47.875Z,2.35
2019-05-12T00:34:18.391Z,3.77
2019-05-12T00:36:48.567Z,4.83
2019-05-12T00:39:19.114Z,5.55
2019-05-12T00:41:48.254Z,3.15
2019-05-12T00:44:18.355Z,3.35
2019-05-12T00:46:48.725Z,3.05
2019-05-12T00:49:18.663Z,1.90
2019-05-12T00:51:48.564Z,2.17
2019-05-12T00:54:17.900Z,1.15
2019-05-12T00:56:48.222Z,2.58
2019-05-12T00:59:19.050Z,4.00
2019-05-12T01:01:48.274Z,2.70
2019-05-12T01:04:17.653Z,2.02
2019-05-12T01:06:51.933Z,1.87
2019-05-12T01:09:20.102Z,1.67
2019-05-12T01:11:48.818Z,2.02
2019-05-12T01:14:18.697Z,1.70
2019-05-12T01:16:48.661Z,2.55
2019-05-12T01:19:18.587Z,3.02
2019-05-12T01:21:48.131Z,4.12
2019-05-12T01:24:18.662Z,2.47
2019-05-12T01:26:47.794Z,3.25
2019-05-12T01:29:17.705Z,2.87
2019-05-12T01:31:51.317Z,3.02
2019-05-12T01:34:21.760Z,2.50
2019-05-12T01:36:50.489Z,1.12
2019-05-12T01:39:19.456Z,4.22
2019-05-12T01:41:48.240Z,2.67
2019-05-12T01:44:18.390Z,1.45
2019-05-12T01:46:48.423Z,3.92
2019-05-12T01:49:18.720Z,2.27
2019-05-12T01:51:47.933Z,2.67
2019-05-12T01:54:18.723Z,1.32
2019-05-12T01:56:48.299Z,1.17
2019-05-12T01:59:18.494Z,1.87
2019-05-12T02:01:48.760Z,1.67
2019-05-12T02:04:18.183Z,0.85
2019-05-12T02:06:48.539Z,1.67
2019-05-12T02:09:19.369Z,1.92
2019-05-12T02:11:48.420Z,0.50
2019-05-12T02:14:18.279Z,2.58
2019-05-12T02:16:47.777Z,1.20
2019-05-12T02:19:17.819Z,1.32
2019-05-12T02:21:48.734Z,1.05
2019-05-12T02:24:26.689Z,0.55
2019-05-12T02:26:48.644Z,2.72
2019-05-12T02:29:18.327Z,0.80
2019-05-12T02:31:50.449Z,1.30
2019-05-12T02:34:19.320Z,2.12
2019-05-12T02:36:48.054Z,1.67
2019-05-12T02:39:16.895Z,2.33
2019-05-12T02:41:45.899Z,1.85
2019-05-12T02:44:15.241Z,3.27
2019-05-12T02:46:44.801Z,2.40
2019-05-12T02:49:15.599Z,0.80
2019-05-12T02:51:45.584Z,1.07
2019-05-12T02:54:15.360Z,1.62
2019-05-12T02:56:46.547Z,1.47
2019-05-12T02:59:17.832Z,1.95
2019-05-12T03:01:48.547Z,0.90
2019-05-12T03:04:19.254Z,1.60
2019-05-12T03:06:48.080Z,2.37
2019-05-12T03:09:17.036Z,1.55
2019-05-12T03:11:46.206Z,1.37
2019-05-12T03:14:15.696Z,1.45
2019-05-12T03:16:45.503Z,3.08
2019-05-12T03:19:15.174Z,3.02
2019-05-12T03:21:44.378Z,0.80
2019-05-12T03:24:14.673Z,0.60
2019-05-12T03:26:45.004Z,0.85
2019-05-12T03:29:14.896Z,1.30
2019-05-12T03:31:48.847Z,3.27
2019-05-12T03:34:19.437Z,1.92
2019-05-12T03:36:50.621Z,2.90
2019-05-12T03:39:15.707Z,0.62
2019-05-12T03:41:44.820Z,0.60
2019-05-12T03:44:14.991Z,1.02
2019-05-12T03:46:45.530Z,1.22
2019-05-12T03:49:15.581Z,1.85
2019-05-12T03:51:45.719Z,0.95
2019-05-12T03:54:15.458Z,1.27
2019-05-12T03:56:45.102Z,2.45
2019-05-12T03:59:14.953Z,1.40
2019-05-12T04:01:45.247Z,0.85
2019-05-12T04:04:15.204Z,0.95
2019-05-12T04:06:45.470Z,3.58
2019-05-12T04:09:15.782Z,1.50
2019-05-12T04:11:44.999Z,1.87
2019-05-12T04:14:14.768Z,1.87
2019-05-12T04:16:45.155Z,1.67
2019-05-12T04:19:15.068Z,1.67
2019-05-12T04:21:44.808Z,2.05
2019-05-12T04:24:14.386Z,1.72
2019-05-12T04:26:44.973Z,2.55
2019-05-12T04:29:15.520Z,2.58
2019-05-12T04:31:44.527Z,3.67
2019-05-12T04:34:15.698Z,0.80
2019-05-12T04:36:44.973Z,0.60
2019-05-12T04:39:14.973Z,1.72
2019-05-12T04:41:44.736Z,0.72
2019-05-12T04:44:15.174Z,2.22
2019-05-12T04:46:45.017Z,1.00
2019-05-12T04:49:15.745Z,0.72
2019-05-12T04:51:45.336Z,1.35
2019-05-12T04:54:15.367Z,3.65
2019-05-12T04:56:44.775Z,4.72
2019-05-12T04:59:15.693Z,1.95
2019-05-12T05:01:45.312Z,1.90
2019-05-12T05:04:15.452Z,1.10
2019-05-12T05:06:45.072Z,1.40
2019-05-12T05:09:14.712Z,2.95
2019-05-12T05:11:45.098Z,1.72
2019-05-12T05:14:14.426Z,1.02
2019-05-12T05:16:45.186Z,0.60
2019-05-12T05:19:14.179Z,2.40
2019-05-12T05:21:43.776Z,2.60
2019-05-12T05:24:14.265Z,2.42
2019-05-12T05:26:43.659Z,1.17
2019-05-12T05:29:13.547Z,1.27
2019-05-12T05:31:44.153Z,3.08
2019-05-12T05:34:14.884Z,0.70
2019-05-12T05:36:43.983Z,2.08
2019-05-12T05:39:13.941Z,2.92
2019-05-12T05:41:48.894Z,2.50
2019-05-12T05:44:13.969Z,1.95
2019-05-12T05:46:45.477Z,4.05
2019-05-12T05:49:13.753Z,1.85
2019-05-12T05:51:46.775Z,1.75
2019-05-12T05:54:13.724Z,1.75
2019-05-12T05:56:57.217Z,4.03
2019-05-12T05:59:15.090Z,1.55
2019-05-12T06:01:46.919Z,1.95
2019-05-12T06:04:14.312Z,1.67
2019-05-12T06:06:50.612Z,1.67
2019-05-12T06:09:14.195Z,1.30
2019-05-12T06:11:43.819Z,2.08
2019-05-12T06:14:14.047Z,2.35
2019-05-12T06:16:43.452Z,1.40
2019-05-12T06:19:14.068Z,4.42
2019-05-12T06:21:43.983Z,2.47
2019-05-12T06:24:15.326Z,0.60
2019-05-12T06:26:56.834Z,1.42
2019-05-12T06:29:20.269Z,1.92
2019-05-12T06:31:45.695Z,1.55
2019-05-12T06:34:20.649Z,0.62
2019-05-12T06:36:44.971Z,1.52
2019-05-12T06:39:18.662Z,3.55
2019-05-12T06:41:44.531Z,0.70
2019-05-12T06:44:14.900Z,0.90
2019-05-12T06:46:44.266Z,1.57
2019-05-12T06:49:17.491Z,0.85
2019-05-12T06:51:44.453Z,2.55
2019-05-12T06:54:15.058Z,1.57
2019-05-12T06:56:43.929Z,0.90
2019-05-12T06:59:14.784Z,2.35
2019-05-12T07:01:45.015Z,1.50
2019-05-12T07:04:14.429Z,3.58
2019-05-12T07:06:44.086Z,2.22
2019-05-12T07:09:16.282Z,0.90
2019-05-12T07:11:52.914Z,0.60
2019-05-12T07:14:22.579Z,3.40
2019-05-12T07:16:46.446Z,0.72
2019-05-12T07:19:21.206Z,2.22
2019-05-12T07:21:50.627Z,3.17
2019-05-12T07:24:16.354Z,1.85
2019-05-12T07:26:47.923Z,3.62
2019-05-12T07:29:16.002Z,2.87
2019-05-12T07:31:44.890Z,1.40
2019-05-12T07:34:13.744Z,1.47
2019-05-12T07:36:44.345Z,2.50
2019-05-12T07:39:13.774Z,1.40
2019-05-12T07:41:50.808Z,0.72
2019-05-12T07:44:16.257Z,2.33
2019-05-12T07:46:49.354Z,2.98
2019-05-12T07:49:15.959Z,1.45
2019-05-12T07:51:44.755Z,0.95
2019-05-12T07:54:14.252Z,0.80
2019-05-12T07:56:44.164Z,1.77
2019-05-12T07:59:13.615Z,0.80
2019-05-12T08:01:45.250Z,0.80
2019-05-12T08:04:13.437Z,1.35
2019-05-12T08:06:46.768Z,1.02
2019-05-12T08:09:13.567Z,1.65
2019-05-12T08:11:43.393Z,4.30
2019-05-12T08:14:24.742Z,0.75
2019-05-12T08:16:43.765Z,3.17
2019-05-12T08:19:14.974Z,0.80
2019-05-12T08:21:48.587Z,0.57
2019-05-12T08:24:14.375Z,2.02
2019-05-12T08:26:43.659Z,0.57
2019-05-12T08:29:16.922Z,1.40
2019-05-12T08:31:44.071Z,2.42
2019-05-12T08:34:13.652Z,2.42
2019-05-12T08:36:44.244Z,2.08
2019-05-12T08:39:21.050Z,1.02
2019-05-12T08:41:44.391Z,0.55
2019-05-12T08:44:13.688Z,0.47
2019-05-12T08:46:51.599Z,1.40
2019-05-12T08:49:14.372Z,0.28
2019-05-12T08:51:44.246Z,0.98
2019-05-12T08:54:14.209Z,1.82
2019-05-12T08:56:44.639Z,0.78
2019-05-12T08:59:15.566Z,1.55
2019-05-12T09:01:44.416Z,0.37
2019-05-12T09:04:18.001Z,2.75
2019-05-12T09:06:43.783Z,1.55
2019-05-12T09:09:13.990Z,0.82
2019-05-12T09:11:44.051Z,1.72
2019-05-12T09:14:14.623Z,1.47
2019-05-12T09:16:44.097Z,1.07
2019-05-12T09:19:18.290Z,1.52
2019-05-12T09:21:44.296Z,1.25
2019-05-12T09:24:21.547Z,1.62
2019-05-12T09:26:43.974Z,0.42
2019-05-12T09:29:13.956Z,1.05
2019-05-12T09:31:44.086Z,0.90
2019-05-12T09:34:16.206Z,1.32
2019-05-12T09:36:44.240Z,0.93
2019-05-12T09:39:14.209Z,1.02
2019-05-12T09:41:49.496Z,1.52
2019-05-12T09:44:13.556Z,3.00
2019-05-12T09:46:44.047Z,1.45
2019-05-12T09:49:14.227Z,0.98
2019-05-12T09:51:45.939Z,0.30
2019-05-12T09:54:13.999Z,1.70
2019-05-12T09:56:44.147Z,1.35
2019-05-12T09:59:18.992Z,1.10
2019-05-12T10:01:45.926Z,0.93
2019-05-12T10:04:16.166Z,3.02
2019-05-12T10:06:44.718Z,1.87
2019-05-12T10:09:17.618Z,2.22
2019-05-12T10:11:44.734Z,1.90
2019-05-12T10:14:14.080Z,1.20
2019-05-12T10:16:45.583Z,1.12
2019-05-12T10:19:14.459Z,1.17
2019-05-12T10:21:44.060Z,0.82
2019-05-12T10:24:13.087Z,2.05
2019-05-12T10:26:48.944Z,0.80
2019-05-12T10:29:20.202Z,2.05
2019-05-12T10:31:44.583Z,1.35
2019-05-12T10:34:18.133Z,1.25
2019-05-12T10:36:53.511Z,1.32
2019-05-12T10:39:24.124Z,2.62
2019-05-12T10:41:54.557Z,2.33
2019-05-12T10:44:23.173Z,2.05
2019-05-12T10:46:53.852Z,1.25
2019-05-12T10:49:23.315Z,3.40
2019-05-12T10:51:54.019Z,1.40
2019-05-12T10:54:24.272Z,4.58
2019-05-12T10:56:54.528Z,1.95
2019-05-12T10:59:32.289Z,1.17
2019-05-12T11:01:54.418Z,2.52
2019-05-12T11:04:35.279Z,0.75
2019-05-12T11:06:53.937Z,1.57
2019-05-12T11:09:27.416Z,1.50
2019-05-12T11:11:54.154Z,2.95
2019-05-12T11:14:26.445Z,3.42
2019-05-12T11:16:54.949Z,3.27
2019-05-12T11:19:23.692Z,4.25
2019-05-12T11:21:53.677Z,5.75
2019-05-12T11:24:22.658Z,2.50
2019-05-12T11:26:53.465Z,2.33
2019-05-12T11:29:23.521Z,0.65
2019-05-12T11:31:53.903Z,0.95
2019-05-12T11:34:23.028Z,4.62
2019-05-12T11:36:54.390Z,2.80
2019-05-12T11:39:23.626Z,0.60
2019-05-12T11:41:55.350Z,2.55
2019-05-12T11:44:23.388Z,1.82
2019-05-12T11:46:54.428Z,2.35
2019-05-12T11:49:26.424Z,1.17
2019-05-12T11:51:54.315Z,2.58
2019-05-12T11:54:24.266Z,1.17
2019-05-12T11:56:53.884Z,2.47
2019-05-12T11:59:23.758Z,2.37
2019-05-12T12:01:54.004Z,1.55
2019-05-12T12:04:27.872Z,1.95
2019-05-12T12:06:56.597Z,1.45
2019-05-12T12:09:26.560Z,1.07
2019-05-12T12:12:02.241Z,2.40
2019-05-12T12:14:25.816Z,1.75
2019-05-12T12:16:54.629Z,0.55
2019-05-12T12:19:26.073Z,1.37
2019-05-12T12:21:53.904Z,0.68
2019-05-12T12:24:29.796Z,2.98
2019-05-12T12:26:53.728Z,1.50
2019-05-12T12:29:24.077Z,1.67
2019-05-12T12:31:54.609Z,1.30
2019-05-12T12:34:29.545Z,1.50
2019-05-12T12:36:54.357Z,2.20
2019-05-12T12:39:23.827Z,2.30
2019-05-12T12:41:59.776Z,2.85
2019-05-12T12:44:24.171Z,1.57
2019-05-12T12:46:59.801Z,0.90
2019-05-12T12:49:23.899Z,1.80
2019-05-12T12:51:52.727Z,1.85
2019-05-12T12:54:21.548Z,1.20
2019-05-12T12:56:50.368Z,2.42
2019-05-12T12:59:19.173Z,1.15
2019-05-12T13:01:48.217Z,1.60
2019-05-12T13:04:17.387Z,1.27
2019-05-12T13:06:46.183Z,4.78
2019-05-12T13:09:24.325Z,2.85
2019-05-12T13:11:45.336Z,1.05
2019-05-12T13:14:14.147Z,3.60
2019-05-12T13:16:43.689Z,1.60
2019-05-12T13:19:25.054Z,4.83
2019-05-12T13:21:53.745Z,1.80
2019-05-12T13:24:22.544Z,2.42
2019-05-12T13:26:51.401Z,2.00
2019-05-12T13:29:20.224Z,3.37
2019-05-12T13:31:49.019Z,1.37
2019-05-12T13:34:17.935Z,2.30
2019-05-12T13:36:46.736Z,1.17
2019-05-12T13:39:16.581Z,3.52
2019-05-12T13:41:50.334Z,1.17
2019-05-12T13:44:16.336Z,1.90
2019-05-12T13:46:48.951Z,2.00
2019-05-12T13:49:17.931Z,1.35
2019-05-12T13:51:48.327Z,1.37
2019-05-12T13:54:20.180Z,1.57
2019-05-12T13:56:47.526Z,1.17
2019-05-12T13:59:20.623Z,2.25
2019-05-12T14:01:47.073Z,1.80
2019-05-12T14:04:15.998Z,1.17
2019-05-12T14:06:44.800Z,1.85
2019-05-12T14:09:13.768Z,1.90
2019-05-12T14:11:43.689Z,1.72
2019-05-12T14:14:15.445Z,1.40
2019-05-12T14:16:44.698Z,2.80
2019-05-12T14:19:14.446Z,2.15
2019-05-12T14:21:43.540Z,3.70
2019-05-12T14:24:13.924Z,2.42
2019-05-12T14:26:45.472Z,2.27
2019-05-12T14:29:13.961Z,4.85
2019-05-12T14:31:51.073Z,5.78
2019-05-12T14:34:16.494Z,2.37
2019-05-12T14:36:43.961Z,43.60
2019-05-12T14:39:13.310Z,3.72
2019-05-12T14:41:44.416Z,4.85
2019-05-12T14:44:13.824Z,3.77
2019-05-12T14:46:46.454Z,4.05
2019-05-12T14:49:14.389Z,2.87
2019-05-12T14:51:44.800Z,4.47
2019-05-12T14:54:14.069Z,1.52
2019-05-12T14:56:44.874Z,1.95
2019-05-12T14:59:14.410Z,2.20
2019-05-12T15:01:56.630Z,1.27
2019-05-12T15:04:14.365Z,2.92
2019-05-12T15:06:44.667Z,2.58
2019-05-12T15:09:19.684Z,3.20
2019-05-12T15:11:44.040Z,2.42
2019-05-12T15:14:13.735Z,1.60
2019-05-12T15:16:44.745Z,2.12
2019-05-12T15:19:13.903Z,3.42
2019-05-12T15:21:43.700Z,2.17
2019-05-12T15:24:15.441Z,8.23
2019-05-12T15:26:43.378Z,3.95
2019-05-12T15:29:18.011Z,5.42
2019-05-12T15:31:53.262Z,2.58
2019-05-12T15:34:14.190Z,3.08
2019-05-12T15:36:51.665Z,1.42
2019-05-12T15:39:14.075Z,2.62
2019-05-12T15:41:43.106Z,4.42
2019-05-12T15:44:14.337Z,2.80
2019-05-12T15:46:45.970Z,5.28
2019-05-12T15:49:12.764Z,2.10
2019-05-12T15:51:51.181Z,3.75
2019-05-12T15:54:14.489Z,3.12
2019-05-12T15:56:42.562Z,2.42
2019-05-12T15:59:11.359Z,2.62
2019-05-12T16:01:40.160Z,3.70
2019-05-12T16:04:11.709Z,2.27
2019-05-12T16:06:45.076Z,2.55
2019-05-12T16:09:09.778Z,2.77
2019-05-12T16:11:38.530Z,2.85
2019-05-12T16:14:07.339Z,2.62
2019-05-12T16:16:42.430Z,1.72
2019-05-12T16:19:07.170Z,5.22
2019-05-12T16:21:35.979Z,2.58
2019-05-12T16:24:11.125Z,1.17
2019-05-12T16:26:35.754Z,1.60
2019-05-12T16:29:06.991Z,3.50
2019-05-12T16:31:39.489Z,3.85
2019-05-12T16:34:06.184Z,2.72
2019-05-12T16:36:35.856Z,3.70
2019-05-12T16:39:07.793Z,2.80
2019-05-12T16:41:36.998Z,4.65
2019-05-12T16:44:07.916Z,4.83
2019-05-12T16:46:36.321Z,4.33
2019-05-12T16:49:05.110Z,3.17
2019-05-12T16:51:33.798Z,4.92
2019-05-12T16:54:03.732Z,4.40
2019-05-12T16:56:33.934Z,2.72
2019-05-12T16:59:07.266Z,4.42
2019-05-12T17:01:35.143Z,2.25
2019-05-12T17:04:04.429Z,4.92
2019-05-12T17:06:35.197Z,2.67
2019-05-12T17:09:07.046Z,4.05
2019-05-12T17:11:37.279Z,3.92
2019-05-12T17:14:06.395Z,2.87
2019-05-12T17:16:41.740Z,5.83
2019-05-12T17:19:10.375Z,4.15
2019-05-12T17:21:37.253Z,7.40
2019-05-12T17:24:06.038Z,6.22
2019-05-12T17:26:34.965Z,3.90
2019-05-12T17:29:04.933Z,4.80
2019-05-12T17:31:33.987Z,2.90
2019-05-12T17:34:06.546Z,4.70
2019-05-12T17:36:34.415Z,5.10
2019-05-12T17:39:06.898Z,6.10
2019-05-12T17:41:40.993Z,4.67
2019-05-12T17:44:07.690Z,7.17
2019-05-12T17:46:37.931Z,6.53
2019-05-12T17:49:08.011Z,6.55
2019-05-12T17:51:39.140Z,6.17
2019-05-12T17:54:14.687Z,6.78
2019-05-12T17:56:42.579Z,5.72
2019-05-12T17:59:14.886Z,9.33
2019-05-12T18:01:45.801Z,5.12
2019-05-12T18:04:15.174Z,5.03
2019-05-12T18:06:44.972Z,5.12
2019-05-12T18:09:19.938Z,7.20
2019-05-12T18:11:54.201Z,6.97
2019-05-12T18:14:17.875Z,8.80
2019-05-12T18:16:52.678Z,20.62
2019-05-12T18:19:19.619Z,9.40
2019-05-12T18:21:48.523Z,10.32
2019-05-12T18:24:17.996Z,14.80
2019-05-12T18:26:56.630Z,13.25
2019-05-12T18:29:18.595Z,8.48
2019-05-12T18:31:48.244Z,6.50
2019-05-12T18:34:19.830Z,15.43
2019-05-12T18:36:54.416Z,33.13
2019-05-12T18:39:20.309Z,32.42
2019-05-12T18:41:49.890Z,31.62
2019-05-12T18:44:28.858Z,34.67
2019-05-12T18:46:50.947Z,30.23
2019-05-12T18:49:20.524Z,24.37
2019-05-12T18:51:55.255Z,24.57
2019-05-12T18:54:24.074Z,45.60
2019-05-12T18:57:02.587Z,48.28
2019-05-12T18:59:27.735Z,15.55
2019-05-12T19:01:56.572Z,20.97
2019-05-12T19:04:27.607Z,11.38
2019-05-12T19:06:57.289Z,11.73
2019-05-12T19:09:26.918Z,12.28
2019-05-12T19:11:56.663Z,16.05
2019-05-12T19:14:34.941Z,10.68
2019-05-12T19:16:56.487Z,14.65
2019-05-12T19:19:26.801Z,7.53
2019-05-12T19:22:05.230Z,6.58
2019-05-12T19:24:27.561Z,9.70
2019-05-12T19:26:56.943Z,10.80
2019-05-12T19:29:29.850Z,7.90
2019-05-12T19:31:58.145Z,6.55
2019-05-12T19:34:31.728Z,10.00
2019-05-12T19:37:03.326Z,7.70
2019-05-12T19:39:34.207Z,4.92
2019-05-12T19:42:03.880Z,10.65
2019-05-12T19:44:34.287Z,10.70
2019-05-12T19:47:07.186Z,13.70
2019-05-12T19:49:46.681Z,7.72
2019-05-12T19:52:08.493Z,9.38
2019-05-12T19:54:38.266Z,5.42
2019-05-12T19:57:15.583Z,6.30
2019-05-12T19:59:44.050Z,5.33
2019-05-12T20:02:14.314Z,4.75
2019-05-12T20:04:51.658Z,6.00
2019-05-12T20:07:13.974Z,11.33
2019-05-12T20:09:46.177Z,5.08
2019-05-12T20:12:18.700Z,5.87
2019-05-12T20:14:45.712Z,5.10
2019-05-12T20:17:15.116Z,8.30
2019-05-12T20:19:44.788Z,7.58
2019-05-12T20:22:14.241Z,5.85
2019-05-12T20:24:44.353Z,6.37
2019-05-12T20:27:17.286Z,6.95
2019-05-12T20:29:45.008Z,4.28
2019-05-12T20:32:13.997Z,5.87
2019-05-12T20:34:49.141Z,7.95
2019-05-12T20:37:16.736Z,4.58
2019-05-12T20:39:44.686Z,4.37
2019-05-12T20:42:14.217Z,9.00
2019-05-12T20:44:43.781Z,6.72
2019-05-12T20:47:13.991Z,7.40
2019-05-12T20:49:50.913Z,3.50
2019-05-12T20:52:14.512Z,4.65
2019-05-12T20:54:44.191Z,5.30
2019-05-12T20:57:14.138Z,8.68
2019-05-12T20:59:44.519Z,7.55
2019-05-12T21:02:14.163Z,6.42
2019-05-12T21:04:44.332Z,4.50
2019-05-12T21:07:21.566Z,8.88
2019-05-12T21:09:44.363Z,7.42
2019-05-12T21:12:13.834Z,5.47
2019-05-12T21:14:51.511Z,5.53
2019-05-12T21:17:15.936Z,8.50
2019-05-12T21:19:55.713Z,5.87
2019-05-12T21:22:16.590Z,8.18
2019-05-12T21:24:45.445Z,7.72
2019-05-12T21:27:15.734Z,6.12
2019-05-12T21:29:44.596Z,11.57
2019-05-12T21:32:16.693Z,9.13
2019-05-12T21:34:44.015Z,8.48
2019-05-12T21:37:13.922Z,8.60
2019-05-12T21:39:46.916Z,11.22
2019-05-12T21:42:13.558Z,9.65
2019-05-12T21:44:46.921Z,10.38
2019-05-12T21:47:34.010Z,8.95
2019-05-12T21:50:03.649Z,6.85
2019-05-12T21:52:37.223Z,12.47
2019-05-12T21:55:05.941Z,7.78
2019-05-12T21:57:34.549Z,7.15
2019-05-12T22:00:10.784Z,9.30
2019-05-12T22:02:35.888Z,8.33
2019-05-12T22:05:06.322Z,6.55
2019-05-12T22:07:39.727Z,10.95
2019-05-12T22:10:07.389Z,10.53
2019-05-12T22:12:36.228Z,6.03
2019-05-12T22:15:11.217Z,7.28
2019-05-12T22:17:55.786Z,4.75
2019-05-12T22:20:24.567Z,6.00
2019-05-12T22:22:53.409Z,5.53
2019-05-12T22:25:23.608Z,5.53
2019-05-12T22:27:53.909Z,5.20
2019-05-12T22:30:24.077Z,9.15
2019-05-12T22:32:54.133Z,3.72
2019-05-12T22:35:24.457Z,5.87
2019-05-12T22:37:53.670Z,9.30
2019-05-12T22:40:23.617Z,4.45
2019-05-12T22:42:59.302Z,5.58
2019-05-12T22:45:24.102Z,8.50
2019-05-12T22:47:57.317Z,11.90
2019-05-12T22:50:27.208Z,7.05
2019-05-12T22:52:53.788Z,7.83
2019-05-12T22:55:30.752Z,10.03
2019-05-12T22:57:53.004Z,5.62
2019-05-12T23:00:24.390Z,4.35
2019-05-12T23:02:53.704Z,9.38
2019-05-12T23:05:24.131Z,6.83
2019-05-12T23:07:54.474Z,6.40
2019-05-12T23:10:23.779Z,5.65
2019-05-12T23:12:57.150Z,7.08
2019-05-12T23:15:24.327Z,14.47
2019-05-12T23:17:53.509Z,5.50
2019-05-12T23:20:25.496Z,5.37
2019-05-12T23:22:54.363Z,12.68
2019-05-12T23:25:24.448Z,5.20
2019-05-12T23:27:54.251Z,7.15
2019-05-12T23:30:24.262Z,11.08
2019-05-12T23:32:53.492Z,8.88
2019-05-12T23:35:22.302Z,5.83
2019-05-12T23:37:53.472Z,6.75
2019-05-12T23:40:23.589Z,5.50
2019-05-12T23:42:53.574Z,6.40
2019-05-12T23:45:24.366Z,4.30
2019-05-12T23:47:53.977Z,7.50
2019-05-12T23:50:24.137Z,6.33
2019-05-12T23:52:54.090Z,8.90
2019-05-12T23:55:24.093Z,8.25
2019-05-12T23:57:53.764Z,5.92
